createdAt,value
2023-01-17T00:00:19.299Z,1.64
2023-01-17T00:02:45.647Z,1.59
2023-01-17T00:05:12.370Z,1.54
2023-01-17T00:07:38.695Z,1.55
2023-01-17T00:10:04.941Z,1.55
2023-01-17T00:12:31.179Z,1.58
2023-01-17T00:14:57.472Z,1.64
2023-01-17T00:17:23.758Z,1.67
2023-01-17T00:19:49.983Z,1.69
2023-01-17T00:22:16.401Z,1.64
2023-01-17T00:24:42.710Z,1.67
2023-01-17T00:27:08.996Z,1.68
2023-01-17T00:29:35.244Z,1.66
2023-01-17T00:32:01.494Z,1.59
2023-01-17T00:34:27.811Z,1.51
2023-01-17T00:36:54.104Z,1.53
2023-01-17T00:39:20.376Z,1.55
2023-01-17T00:41:46.626Z,1.59
2023-01-17T00:44:12.869Z,1.34
2023-01-17T00:46:39.167Z,1.11
2023-01-17T00:49:05.429Z,0.88
2023-01-17T00:51:31.683Z,0.67
2023-01-17T00:53:57.944Z,0.81
2023-01-17T00:56:24.290Z,0.98
2023-01-17T00:58:50.557Z,1.06
2023-01-17T01:01:16.865Z,1.08
2023-01-17T01:03:43.298Z,1.08
2023-01-17T01:06:09.540Z,1.10
2023-01-17T01:08:35.794Z,1.15
2023-01-17T01:11:02.084Z,1.15
2023-01-17T01:13:28.405Z,1.16
2023-01-17T01:15:54.700Z,0.31
2023-01-17T01:18:21.035Z,0.16
2023-01-17T01:20:47.351Z,-0.08
2023-01-17T01:23:13.601Z,-0.10
2023-01-17T01:25:39.926Z,0.08
2023-01-17T01:28:06.240Z,0.30
2023-01-17T01:30:32.470Z,0.34
2023-01-17T01:32:58.774Z,0.43
2023-01-17T01:35:25.039Z,0.63
2023-01-17T01:37:51.288Z,0.78
2023-01-17T01:40:17.576Z,0.79
2023-01-17T01:42:44.529Z,0.89
2023-01-17T01:45:10.790Z,0.96
2023-01-17T01:47:37.041Z,1.03
2023-01-17T01:50:03.277Z,1.08
2023-01-17T01:52:29.538Z,1.15
2023-01-17T01:54:55.816Z,1.12
2023-01-17T01:57:22.075Z,0.95
2023-01-17T01:59:48.330Z,1.04
2023-01-17T02:02:14.637Z,1.01
2023-01-17T02:04:40.942Z,0.95
2023-01-17T02:07:07.184Z,0.85
2023-01-17T02:09:33.466Z,0.88
2023-01-17T02:11:59.731Z,0.94
2023-01-17T02:14:25.984Z,0.94
2023-01-17T02:16:52.327Z,0.92
2023-01-17T02:19:18.601Z,0.82
2023-01-17T02:21:45.241Z,0.66
2023-01-17T02:24:11.498Z,0.41
2023-01-17T02:26:37.763Z,0.24
2023-01-17T02:29:04.005Z,0.13
2023-01-17T02:31:30.327Z,-0.01
2023-01-17T02:33:56.627Z,-0.09
2023-01-17T02:36:22.921Z,-0.19
2023-01-17T02:38:49.204Z,-0.26
2023-01-17T02:41:15.491Z,-0.26
2023-01-17T02:43:41.725Z,-0.22
2023-01-17T02:46:09.814Z,-0.24
2023-01-17T02:48:36.356Z,-0.26
2023-01-17T02:51:02.618Z,-0.34
2023-01-17T02:53:28.855Z,-0.52
2023-01-17T02:55:55.172Z,-0.66
2023-01-17T02:58:21.473Z,-0.67
2023-01-17T03:00:47.827Z,-0.78
2023-01-17T03:03:14.201Z,-0.74
2023-01-17T03:05:40.480Z,-0.74
2023-01-17T03:08:06.694Z,-0.66
2023-01-17T03:10:33.033Z,-0.61
2023-01-17T03:12:59.333Z,-0.58
2023-01-17T03:15:25.582Z,-0.55
2023-01-17T03:17:51.911Z,-0.57
2023-01-17T03:20:18.188Z,-0.58
2023-01-17T03:22:44.407Z,-0.55
2023-01-17T03:25:10.699Z,-0.49
2023-01-17T03:27:37.006Z,-0.44
2023-01-17T03:30:03.241Z,-0.45
2023-01-17T03:32:29.548Z,-0.61
2023-01-17T03:34:55.815Z,-0.49
2023-01-17T03:37:22.124Z,-0.44
2023-01-17T03:39:48.439Z,-0.41
2023-01-17T03:42:14.718Z,-0.45
2023-01-17T03:44:40.967Z,-0.58
2023-01-17T03:47:07.290Z,-0.57
2023-01-17T03:49:33.565Z,-0.65
2023-01-17T03:51:59.804Z,-0.53
2023-01-17T03:54:26.106Z,-0.43
2023-01-17T03:56:52.407Z,-0.30
2023-01-17T03:59:18.682Z,-0.37
2023-01-17T04:01:45.078Z,-0.34
2023-01-17T04:04:11.488Z,-0.26
2023-01-17T04:06:37.780Z,-0.31
2023-01-17T04:09:04.083Z,-0.34
2023-01-17T04:11:30.358Z,-0.30
2023-01-17T04:13:56.669Z,-0.28
2023-01-17T04:16:23.036Z,-0.28
2023-01-17T04:18:49.361Z,-0.25
2023-01-17T04:21:15.639Z,-0.28
2023-01-17T04:23:41.883Z,-0.23
2023-01-17T04:26:08.110Z,-0.20
2023-01-17T04:28:34.438Z,-0.24
2023-01-17T04:31:00.767Z,-0.21
2023-01-17T04:33:27.054Z,-0.25
2023-01-17T04:35:53.375Z,-0.26
2023-01-17T04:38:19.665Z,-0.24
2023-01-17T04:40:46.125Z,-0.24
2023-01-17T04:43:12.472Z,-0.28
2023-01-17T04:45:38.826Z,-0.30
2023-01-17T04:48:05.105Z,-0.49
2023-01-17T04:50:31.347Z,-0.50
2023-01-17T04:52:57.566Z,-0.58
2023-01-17T04:55:23.848Z,-0.64
2023-01-17T04:57:50.094Z,-0.66
2023-01-17T05:00:16.361Z,-0.62
2023-01-17T05:02:42.681Z,-0.64
2023-01-17T05:05:09.539Z,-0.62
2023-01-17T05:07:36.009Z,-0.71
2023-01-17T05:10:02.283Z,-0.74
2023-01-17T05:12:28.589Z,-0.61
2023-01-17T05:14:54.849Z,-0.58
2023-01-17T05:17:21.092Z,-0.53
2023-01-17T05:19:47.380Z,-0.46
2023-01-17T05:22:13.708Z,-0.55
2023-01-17T05:24:39.962Z,-0.50
2023-01-17T05:27:06.299Z,-0.53
2023-01-17T05:29:32.588Z,-0.58
2023-01-17T05:31:58.844Z,-0.61
2023-01-17T05:34:25.074Z,-0.62
2023-01-17T05:36:51.339Z,-0.54
2023-01-17T05:39:17.595Z,-0.64
2023-01-17T05:41:43.908Z,-0.56
2023-01-17T05:44:10.167Z,-0.48
2023-01-17T05:46:36.430Z,-0.45
2023-01-17T05:49:02.808Z,-0.33
2023-01-17T05:51:29.107Z,-0.21
2023-01-17T05:53:55.345Z,-0.09
2023-01-17T05:56:21.577Z,-0.02
2023-01-17T05:58:47.906Z,0.10
2023-01-17T06:01:14.229Z,0.10
2023-01-17T06:03:40.550Z,0.16
2023-01-17T06:06:06.862Z,0.08
2023-01-17T06:08:33.138Z,0.09
2023-01-17T06:10:59.397Z,0.15
2023-01-17T06:13:25.695Z,0.25
2023-01-17T06:15:51.999Z,0.27
2023-01-17T06:18:18.285Z,-0.04
2023-01-17T06:20:44.682Z,0.02
2023-01-17T06:23:11.036Z,0.11
2023-01-17T06:25:37.316Z,0.17
2023-01-17T06:28:03.612Z,-0.05
2023-01-17T06:30:29.907Z,-0.02
2023-01-17T06:32:56.203Z,0.13
2023-01-17T06:35:22.571Z,0.20
2023-01-17T06:37:48.841Z,0.24
2023-01-17T06:40:15.103Z,0.24
2023-01-17T06:42:41.394Z,0.35
2023-01-17T06:45:07.756Z,0.39
2023-01-17T06:47:33.997Z,0.38
2023-01-17T06:50:00.341Z,0.50
2023-01-17T06:52:26.634Z,0.55
2023-01-17T06:54:52.867Z,0.60
2023-01-17T06:57:19.100Z,0.61
2023-01-17T06:59:45.422Z,0.64
2023-01-17T07:02:11.690Z,0.66
2023-01-17T07:04:37.957Z,0.50
2023-01-17T07:07:04.352Z,0.54
2023-01-17T07:09:33.229Z,0.62
2023-01-17T07:11:59.635Z,0.54
2023-01-17T07:14:26.043Z,0.53
2023-01-17T07:16:52.479Z,0.63
2023-01-17T07:19:18.874Z,0.69
2023-01-17T07:21:45.363Z,0.70
2023-01-17T07:24:11.780Z,0.73
2023-01-17T07:26:38.106Z,0.73
2023-01-17T07:29:04.504Z,0.79
2023-01-17T07:31:30.966Z,0.88
2023-01-17T07:33:57.322Z,0.90
2023-01-17T07:36:23.774Z,0.93
2023-01-17T07:38:51.127Z,0.94
2023-01-17T07:41:17.516Z,0.99
2023-01-17T07:43:43.887Z,0.99
2023-01-17T07:46:10.318Z,0.93
2023-01-17T07:48:36.732Z,0.98
2023-01-17T07:51:03.003Z,1.01
2023-01-17T07:53:29.457Z,0.96
2023-01-17T07:55:55.886Z,0.92
2023-01-17T07:58:22.226Z,0.92
2023-01-17T08:00:48.858Z,0.88
2023-01-17T08:03:15.380Z,0.90
2023-01-17T08:05:41.759Z,0.99
2023-01-17T08:08:08.328Z,1.00
2023-01-17T08:10:34.776Z,0.93
2023-01-17T08:13:01.184Z,0.95
2023-01-17T08:15:27.860Z,0.99
2023-01-17T08:17:54.276Z,1.01
2023-01-17T08:20:20.567Z,0.93
2023-01-17T08:22:47.048Z,0.91
2023-01-17T08:25:13.462Z,0.86
2023-01-17T08:27:39.829Z,0.71
2023-01-17T08:30:06.255Z,0.67
2023-01-17T08:32:32.535Z,0.68
2023-01-17T08:34:58.826Z,0.62
2023-01-17T08:37:25.145Z,0.58
2023-01-17T08:39:51.432Z,0.50
2023-01-17T08:42:17.696Z,0.42
2023-01-17T08:44:44.032Z,0.47
2023-01-17T08:47:10.354Z,0.46
2023-01-17T08:49:36.634Z,0.36
2023-01-17T08:52:02.876Z,0.46
2023-01-17T08:54:29.170Z,0.35
2023-01-17T08:56:55.459Z,0.42
2023-01-17T08:59:21.698Z,0.45
2023-01-17T09:01:48.035Z,0.54
2023-01-17T09:04:14.477Z,0.57
2023-01-17T09:06:40.760Z,0.65
2023-01-17T09:09:07.000Z,0.70
2023-01-17T09:11:33.333Z,0.80
2023-01-17T09:13:59.627Z,0.90
2023-01-17T09:16:25.912Z,0.95
2023-01-17T09:18:52.275Z,1.02
2023-01-17T09:21:18.554Z,1.08
2023-01-17T09:23:44.833Z,1.11
2023-01-17T09:26:11.169Z,1.20
2023-01-17T09:28:37.454Z,1.25
2023-01-17T09:31:03.698Z,1.32
2023-01-17T09:33:30.019Z,1.35
2023-01-17T09:35:56.275Z,1.28
2023-01-17T09:38:22.550Z,1.36
2023-01-17T09:40:49.003Z,1.46
2023-01-17T09:43:15.307Z,1.56
2023-01-17T09:45:41.592Z,1.59
2023-01-17T09:48:07.947Z,1.74
2023-01-17T09:50:34.254Z,1.83
2023-01-17T09:53:00.502Z,1.92
2023-01-17T09:55:26.951Z,1.99
2023-01-17T09:57:53.235Z,2.05
2023-01-17T10:00:19.501Z,2.11
2023-01-17T10:02:45.956Z,2.18
2023-01-17T10:05:12.381Z,2.15
2023-01-17T10:07:38.644Z,2.18
2023-01-17T10:10:05.000Z,2.16
2023-01-17T10:12:31.257Z,2.17
2023-01-17T10:14:57.524Z,2.21
2023-01-17T10:17:23.855Z,2.05
2023-01-17T10:19:50.155Z,2.02
2023-01-17T10:22:16.380Z,2.04
2023-01-17T10:24:42.809Z,2.07
2023-01-17T10:27:09.185Z,2.16
2023-01-17T10:29:35.459Z,2.24
2023-01-17T10:32:01.790Z,2.28
2023-01-17T10:34:28.095Z,2.26
2023-01-17T10:36:54.379Z,2.19
2023-01-17T10:39:20.698Z,2.14
2023-01-17T10:41:47.001Z,2.17
2023-01-17T10:44:13.235Z,2.28
2023-01-17T10:46:39.471Z,2.40
2023-01-17T10:49:05.711Z,2.50
2023-01-17T10:51:31.955Z,2.50
2023-01-17T10:54:00.068Z,2.63
2023-01-17T10:56:27.946Z,2.70
2023-01-17T10:58:54.206Z,2.80
2023-01-17T11:01:20.634Z,2.93
2023-01-17T11:03:47.047Z,3.05
2023-01-17T11:06:13.286Z,3.16
2023-01-17T11:08:39.603Z,3.28
2023-01-17T11:11:05.859Z,3.36
2023-01-17T11:13:32.092Z,3.36
2023-01-17T11:15:58.395Z,3.33
2023-01-17T11:18:24.672Z,3.28
2023-01-17T11:20:50.944Z,3.36
2023-01-17T11:23:17.243Z,3.28
2023-01-17T11:25:43.498Z,3.26
2023-01-17T11:28:09.743Z,3.28
2023-01-17T11:30:36.091Z,3.28
2023-01-17T11:33:02.439Z,3.19
2023-01-17T11:35:28.846Z,3.03
2023-01-17T11:37:55.247Z,2.65
2023-01-17T11:40:21.542Z,1.98
2023-01-17T11:42:47.778Z,2.24
2023-01-17T11:45:14.042Z,2.51
2023-01-17T11:47:40.302Z,2.70
2023-01-17T11:50:06.559Z,2.80
2023-01-17T11:52:32.919Z,2.99
2023-01-17T11:54:59.228Z,3.14
2023-01-17T11:57:25.497Z,3.27
2023-01-17T11:59:51.850Z,3.06
2023-01-17T12:02:18.147Z,2.97
2023-01-17T12:04:44.425Z,2.87
2023-01-17T12:07:10.669Z,2.71
2023-01-17T12:09:37.031Z,2.68
2023-01-17T12:12:04.448Z,2.64
2023-01-17T12:14:31.458Z,2.61
2023-01-17T12:16:57.800Z,2.63
2023-01-17T12:19:24.045Z,2.63
2023-01-17T12:21:50.312Z,2.62
2023-01-17T12:24:16.636Z,2.47
2023-01-17T12:26:42.956Z,2.42
2023-01-17T12:29:09.417Z,2.46
2023-01-17T12:31:35.803Z,2.46
2023-01-17T12:34:02.088Z,2.45
2023-01-17T12:36:28.347Z,2.32
2023-01-17T12:38:54.686Z,2.29
2023-01-17T12:41:20.997Z,2.23
2023-01-17T12:43:47.232Z,2.28
2023-01-17T12:46:13.567Z,2.32
2023-01-17T12:48:39.949Z,2.28
2023-01-17T12:51:06.219Z,2.14
2023-01-17T12:53:32.535Z,2.05
2023-01-17T12:55:58.785Z,1.93
2023-01-17T12:58:25.045Z,1.86
2023-01-17T13:00:51.516Z,1.87
2023-01-17T13:03:17.913Z,1.76
2023-01-17T13:05:44.156Z,1.81
2023-01-17T13:08:10.487Z,1.91
2023-01-17T13:10:36.787Z,1.79
2023-01-17T13:13:03.019Z,1.79
2023-01-17T13:15:29.331Z,1.80
2023-01-17T13:17:55.670Z,1.83
2023-01-17T13:20:21.939Z,1.98
2023-01-17T13:22:48.295Z,2.10
2023-01-17T13:25:14.608Z,2.30
2023-01-17T13:27:40.856Z,2.54
2023-01-17T13:30:07.167Z,2.60
2023-01-17T13:32:33.436Z,2.60
2023-01-17T13:35:01.021Z,2.50
2023-01-17T13:37:28.012Z,2.08
2023-01-17T13:39:54.344Z,2.09
2023-01-17T13:42:20.639Z,2.25
2023-01-17T13:44:46.891Z,2.47
2023-01-17T13:47:13.211Z,2.54
2023-01-17T13:49:39.494Z,2.65
2023-01-17T13:52:05.740Z,2.75
2023-01-17T13:54:32.046Z,2.80
2023-01-17T13:56:58.518Z,2.81
2023-01-17T13:59:24.824Z,2.76
2023-01-17T14:01:51.225Z,2.71
2023-01-17T14:04:17.656Z,2.45
2023-01-17T14:06:43.996Z,2.24
2023-01-17T14:09:11.322Z,2.15
2023-01-17T14:11:37.550Z,2.22
2023-01-17T14:14:03.851Z,2.30
2023-01-17T14:16:30.232Z,2.28
2023-01-17T14:18:56.566Z,2.28
2023-01-17T14:21:22.867Z,2.39
2023-01-17T14:23:49.164Z,2.41
2023-01-17T14:26:15.410Z,2.34
2023-01-17T14:28:41.701Z,2.23
2023-01-17T14:31:07.963Z,2.28
2023-01-17T14:33:34.222Z,2.23
2023-01-17T14:36:00.460Z,2.00
2023-01-17T14:38:26.966Z,1.50
2023-01-17T14:40:53.231Z,1.48
2023-01-17T14:43:19.487Z,1.50
2023-01-17T14:45:46.003Z,1.54
2023-01-17T14:48:12.291Z,1.58
2023-01-17T14:50:38.551Z,1.57
2023-01-17T14:53:04.844Z,1.34
2023-01-17T14:55:31.121Z,1.28
2023-01-17T14:57:57.349Z,1.35
2023-01-17T15:00:23.656Z,1.42
2023-01-17T15:02:50.002Z,1.43
2023-01-17T15:05:16.396Z,1.32
2023-01-17T15:07:43.821Z,1.10
2023-01-17T15:10:10.319Z,0.80
2023-01-17T15:12:36.824Z,0.30
2023-01-17T15:15:03.432Z,0.42
2023-01-17T15:17:32.640Z,0.73
2023-01-17T15:19:59.210Z,0.96
2023-01-17T15:22:25.604Z,1.11
2023-01-17T15:24:52.400Z,1.17
2023-01-17T15:27:19.083Z,1.23
2023-01-17T15:29:45.484Z,1.18
2023-01-17T15:32:11.785Z,1.14
2023-01-17T15:34:38.113Z,1.20
2023-01-17T15:37:04.429Z,1.13
2023-01-17T15:39:31.723Z,1.04
2023-01-17T15:41:58.040Z,0.80
2023-01-17T15:44:24.423Z,0.65
2023-01-17T15:46:50.728Z,0.74
2023-01-17T15:49:17.872Z,0.75
2023-01-17T15:51:44.323Z,0.82
2023-01-17T15:54:10.618Z,0.77
2023-01-17T15:56:36.848Z,0.69
2023-01-17T15:59:03.155Z,0.68
2023-01-17T16:01:29.598Z,0.70
2023-01-17T16:03:55.907Z,0.71
2023-01-17T16:06:22.218Z,0.69
2023-01-17T16:08:48.493Z,0.79
2023-01-17T16:11:14.722Z,0.88
2023-01-17T16:13:41.048Z,0.92
2023-01-17T16:16:09.764Z,0.93
2023-01-17T16:18:36.255Z,0.84
2023-01-17T16:21:02.556Z,0.85
2023-01-17T16:23:28.840Z,0.60
2023-01-17T16:25:55.060Z,0.65
2023-01-17T16:28:21.387Z,0.71
2023-01-17T16:30:47.656Z,0.77
2023-01-17T16:33:13.955Z,0.85
2023-01-17T16:35:40.405Z,0.87
2023-01-17T16:38:06.696Z,0.93
2023-01-17T16:40:32.930Z,0.97
2023-01-17T16:42:59.207Z,0.92
2023-01-17T16:45:25.524Z,0.92
2023-01-17T16:47:52.108Z,0.88
2023-01-17T16:50:18.505Z,0.70
2023-01-17T16:52:45.240Z,0.63
2023-01-17T16:55:11.543Z,0.65
2023-01-17T16:57:37.805Z,0.66
2023-01-17T17:00:04.113Z,0.66
2023-01-17T17:02:30.363Z,0.70
2023-01-17T17:04:56.630Z,0.65
2023-01-17T17:07:22.919Z,0.76
2023-01-17T17:09:49.192Z,0.79
2023-01-17T17:12:15.449Z,0.79
2023-01-17T17:14:41.871Z,0.86
2023-01-17T17:17:08.175Z,0.93
2023-01-17T17:19:34.418Z,0.78
2023-01-17T17:22:00.659Z,0.57
2023-01-17T17:24:26.922Z,0.60
2023-01-17T17:26:53.177Z,0.56
2023-01-17T17:29:19.484Z,0.38
2023-01-17T17:31:45.793Z,0.50
2023-01-17T17:34:12.037Z,0.67
2023-01-17T17:36:38.396Z,0.81
2023-01-17T17:39:04.745Z,0.88
2023-01-17T17:41:31.005Z,0.92
2023-01-17T17:43:57.324Z,0.98
2023-01-17T17:46:23.617Z,1.02
2023-01-17T17:48:49.874Z,1.00
2023-01-17T17:51:16.137Z,0.99
2023-01-17T17:53:42.440Z,0.98
2023-01-17T17:56:08.722Z,0.99
2023-01-17T17:58:34.960Z,1.04
2023-01-17T18:01:01.229Z,1.07
2023-01-17T18:03:27.498Z,1.08
2023-01-17T18:05:53.723Z,1.07
2023-01-17T18:08:20.027Z,1.06
2023-01-17T18:10:46.294Z,1.04
2023-01-17T18:13:12.548Z,0.98
2023-01-17T18:15:38.825Z,0.96
2023-01-17T18:18:05.103Z,0.91
2023-01-17T18:20:31.338Z,0.81
2023-01-17T18:22:57.746Z,0.80
2023-01-17T18:25:24.081Z,0.83
2023-01-17T18:27:50.339Z,0.79
2023-01-17T18:30:16.659Z,0.69
2023-01-17T18:32:42.939Z,0.68
2023-01-17T18:35:09.188Z,0.66
2023-01-17T18:37:35.430Z,0.72
2023-01-17T18:40:01.734Z,0.73
2023-01-17T18:42:28.072Z,0.72
2023-01-17T18:44:54.311Z,0.77
2023-01-17T18:47:20.629Z,0.71
2023-01-17T18:49:46.964Z,0.63
2023-01-17T18:52:13.201Z,0.52
2023-01-17T18:54:39.549Z,0.47
2023-01-17T18:57:05.871Z,0.51
2023-01-17T18:59:32.098Z,0.49
2023-01-17T19:01:58.402Z,0.16
2023-01-17T19:04:24.696Z,0.27
2023-01-17T19:06:51.401Z,0.36
2023-01-17T19:09:17.713Z,0.48
2023-01-17T19:11:43.970Z,0.58
2023-01-17T19:14:10.273Z,0.44
2023-01-17T19:16:36.632Z,0.41
2023-01-17T19:19:02.922Z,0.48
2023-01-17T19:21:29.178Z,0.43
2023-01-17T19:23:55.501Z,0.25
2023-01-17T19:26:21.780Z,0.21
2023-01-17T19:28:48.021Z,0.19
2023-01-17T19:31:14.367Z,0.13
2023-01-17T19:33:40.665Z,0.07
2023-01-17T19:36:06.905Z,0.09
2023-01-17T19:38:33.148Z,0.08
2023-01-17T19:40:59.391Z,-0.03
2023-01-17T19:43:25.645Z,-0.12
2023-01-17T19:45:52.057Z,-0.05
2023-01-17T19:48:18.396Z,-0.16
2023-01-17T19:50:44.676Z,-0.25
2023-01-17T19:53:10.934Z,-0.36
2023-01-17T19:55:37.225Z,-0.40
2023-01-17T19:58:03.516Z,-0.51
2023-01-17T20:00:30.474Z,-0.38
2023-01-17T20:02:56.994Z,-0.38
2023-01-17T20:05:23.515Z,-0.35
2023-01-17T20:07:49.740Z,-0.23
2023-01-17T20:10:15.989Z,-0.14
2023-01-17T20:12:42.288Z,-0.12
2023-01-17T20:15:08.529Z,-0.09
2023-01-17T20:17:34.839Z,-0.19
2023-01-17T20:20:01.125Z,-0.11
2023-01-17T20:22:28.235Z,-0.01
2023-01-17T20:24:54.561Z,-0.03
2023-01-17T20:27:20.843Z,-0.07
2023-01-17T20:29:47.089Z,-0.02
2023-01-17T20:32:13.471Z,-0.15
2023-01-17T20:34:39.782Z,-0.15
2023-01-17T20:37:06.051Z,-0.10
2023-01-17T20:39:32.426Z,-0.02
2023-01-17T20:41:58.670Z,-0.07
2023-01-17T20:44:24.954Z,-0.04
2023-01-17T20:46:51.245Z,-0.33
2023-01-17T20:49:17.666Z,-0.25
2023-01-17T20:51:43.915Z,-0.17
2023-01-17T20:54:10.235Z,-0.08
2023-01-17T20:56:36.521Z,-0.04
2023-01-17T20:59:02.777Z,-0.10
2023-01-17T21:01:29.180Z,-0.16
2023-01-17T21:03:55.513Z,-0.20
2023-01-17T21:06:21.803Z,-0.24
2023-01-17T21:08:48.093Z,-0.27
2023-01-17T21:11:14.383Z,-0.28
2023-01-17T21:13:40.612Z,-0.27
2023-01-17T21:16:06.927Z,-0.27
2023-01-17T21:18:33.244Z,-0.12
2023-01-17T21:20:59.490Z,-0.07
2023-01-17T21:23:25.784Z,-0.04
2023-01-17T21:25:54.131Z,-0.08
2023-01-17T21:28:21.767Z,-0.17
2023-01-17T21:30:48.074Z,-0.37
2023-01-17T21:33:14.368Z,-0.40
2023-01-17T21:35:40.627Z,-0.36
2023-01-17T21:38:06.901Z,-0.43
2023-01-17T21:40:33.162Z,-0.41
2023-01-17T21:42:59.396Z,-0.43
2023-01-17T21:45:25.693Z,-0.26
2023-01-17T21:47:51.979Z,-0.10
2023-01-17T21:50:32.521Z,0.04
2023-01-17T21:52:59.574Z,0.08
2023-01-17T21:55:25.803Z,0.07
2023-01-17T21:57:52.048Z,0.05
2023-01-17T22:00:18.393Z,-0.14
2023-01-17T22:02:44.684Z,-0.11
2023-01-17T22:05:10.975Z,-0.07
2023-01-17T22:07:37.323Z,0.02
2023-01-17T22:10:03.539Z,0.14
2023-01-17T22:12:29.775Z,0.22
2023-01-17T22:14:56.117Z,0.26
2023-01-17T22:17:22.361Z,0.35
2023-01-17T22:19:48.613Z,0.30
2023-01-17T22:22:14.887Z,0.17
2023-01-17T22:24:41.196Z,0.17
2023-01-17T22:27:07.432Z,-0.01
2023-01-17T22:29:33.681Z,-0.65
2023-01-17T22:31:59.984Z,-0.87
2023-01-17T22:34:26.207Z,-0.69
2023-01-17T22:36:52.514Z,-0.41
2023-01-17T22:39:18.807Z,-0.16
2023-01-17T22:41:45.028Z,-0.03
2023-01-17T22:44:11.291Z,0.10
2023-01-17T22:46:37.627Z,0.15
2023-01-17T22:49:03.867Z,0.24
2023-01-17T22:51:30.138Z,0.26
2023-01-17T22:53:56.378Z,0.24
2023-01-17T22:56:22.645Z,0.31
2023-01-17T22:58:48.988Z,0.37
2023-01-17T23:01:16.563Z,0.42
2023-01-17T23:03:42.847Z,0.33
2023-01-17T23:06:09.135Z,0.32
2023-01-17T23:08:35.454Z,0.33
2023-01-17T23:11:01.691Z,0.39
2023-01-17T23:13:27.936Z,0.40
2023-01-17T23:15:55.910Z,0.46
2023-01-17T23:18:22.168Z,0.43
2023-01-17T23:20:48.407Z,0.32
2023-01-17T23:23:14.731Z,0.26
2023-01-17T23:25:40.963Z,0.18
2023-01-17T23:28:07.232Z,-0.01
2023-01-17T23:30:33.592Z,-0.06
2023-01-17T23:33:00.215Z,-0.24
2023-01-17T23:35:26.676Z,-0.22
2023-01-17T23:37:53.027Z,-0.41
2023-01-17T23:40:19.248Z,-0.49
2023-01-17T23:42:45.491Z,-0.72
2023-01-17T23:45:11.849Z,-0.61
2023-01-17T23:47:38.079Z,-0.66
2023-01-17T23:50:04.300Z,-0.69
2023-01-17T23:52:30.619Z,-0.81
2023-01-17T23:54:56.865Z,-0.69
2023-01-17T23:57:23.111Z,-0.76
2023-01-17T23:59:49.436Z,-0.75
